ENFL/FRO METAR and TAF weather

Enter ICAO airport designator
Station Type Date Time Source
ENFL METAR 2020/03/31 23:20 UTC NOAA

ENFL 312320Z AUTO 21006KT 180V240 9999NDV -SHRA FEW009/// SCT014/// BKN022/// 06/05 Q1014


Station Type Date Time Source
ENFL Decoded METAR 2020/03/31 23:20 UTC NOAA

Floro, Norway (ENFL) 61-35N 005-02E 9M
Mar 31, 2020 - 07:20 PM EDT / 2020.03.31 2320 UTC
Wind: from the SSW (210 degrees) at 7 MPH (6 KT) (direction variable):0
Sky conditions: mostly cloudy
Weather: light rain showers
Temperature: 42 F (6 C)
Dew Point: 41 F (5 C)
Relative Humidity: 93%
Pressure (altimeter): 29.94 in. Hg (1014 hPa)
ob: ENFL 312320Z AUTO 21006KT 180V240 9999NDV -SHRA FEW009/// SCT014/// BKN022/// 06/05 Q1014
cycle: 23

Station Type Date Time Source
ENFL TAF 2010/02/05 07:50 UTC NOAA

METAR ENFL 050750Z 16019KT 140V200 9999 FEW015 SCT030 BKN055 03/M03 Q1011

Example: see airport list